createdAt,value
2022-09-13T00:04:05.222Z,60.48
2022-09-13T00:09:37.865Z,60.71
2022-09-13T00:15:09.545Z,60.58
2022-09-13T00:20:40.583Z,60.73
2022-09-13T00:26:14.188Z,60.41
2022-09-13T00:31:45.182Z,60.78
2022-09-13T00:37:16.095Z,60.75
2022-09-13T00:42:47.270Z,60.55
2022-09-13T00:48:23.162Z,60.89
2022-09-13T00:53:55.518Z,60.80
2022-09-13T00:59:31.394Z,60.70
2022-09-13T01:05:02.744Z,60.75
2022-09-13T01:10:36.181Z,60.75
2022-09-13T01:16:07.432Z,60.90
2022-09-13T01:22:00.219Z,61.01
2022-09-13T01:27:51.195Z,60.96
2022-09-13T01:33:38.626Z,60.79
2022-09-13T01:39:23.802Z,60.95
2022-09-13T01:45:01.093Z,60.88
2022-09-13T01:50:42.422Z,60.62
2022-09-13T01:56:34.113Z,60.71
2022-09-13T02:02:28.446Z,60.52
2022-09-13T02:08:05.042Z,60.52
2022-09-13T02:13:39.959Z,60.69
2022-09-13T02:19:19.321Z,60.62
2022-09-13T02:24:56.057Z,60.61
2022-09-13T02:30:28.881Z,60.62
2022-09-13T02:36:13.651Z,60.59
2022-09-13T02:42:03.274Z,60.67
2022-09-13T02:47:59.367Z,60.82
2022-09-13T02:53:40.721Z,60.96
2022-09-13T02:59:20.618Z,60.93
2022-09-13T03:04:51.879Z,61.11
2022-09-13T03:10:23.388Z,61.02
2022-09-13T03:16:28.815Z,61.08
2022-09-13T03:22:07.334Z,61.13
2022-09-13T03:27:47.458Z,60.96
2022-09-13T03:33:25.338Z,61.31
2022-09-13T03:39:15.487Z,61.26
2022-09-13T03:44:48.033Z,61.53
2022-09-13T03:50:22.823Z,61.24
2022-09-13T03:55:54.902Z,61.43
2022-09-13T04:01:26.165Z,61.65
2022-09-13T04:06:57.264Z,61.79
2022-09-13T04:12:31.453Z,62.01
2022-09-13T04:18:02.494Z,61.97
2022-09-13T04:23:33.445Z,61.93
2022-09-13T04:29:04.256Z,62.06
2022-09-13T04:34:35.633Z,62.12
2022-09-13T04:40:08.400Z,62.06
2022-09-13T04:45:40.213Z,62.16
2022-09-13T04:51:11.263Z,62.19
2022-09-13T04:56:42.202Z,61.94
2022-09-13T05:02:13.260Z,62.28
2022-09-13T05:07:44.221Z,61.95
2022-09-13T05:13:15.423Z,62.18
2022-09-13T05:18:46.690Z,62.16
2022-09-13T05:24:18.116Z,62.33
2022-09-13T05:29:49.132Z,62.56
2022-09-13T05:35:20.360Z,62.48
2022-09-13T05:40:58.346Z,62.34
2022-09-13T05:46:29.494Z,62.52
2022-09-13T05:52:00.441Z,62.41
2022-09-13T05:57:31.248Z,62.46
2022-09-13T06:03:01.993Z,62.40
2022-09-13T06:08:34.651Z,62.37
2022-09-13T06:14:05.596Z,62.53
2022-09-13T06:19:36.544Z,62.62
2022-09-13T06:25:07.897Z,62.64
2022-09-13T06:30:38.707Z,62.17
2022-09-13T06:36:15.885Z,62.24
2022-09-13T06:41:46.915Z,62.07
2022-09-13T06:47:18.058Z,62.43
2022-09-13T06:52:49.252Z,62.26
2022-09-13T06:58:20.358Z,62.38
2022-09-13T07:03:54.521Z,62.31
2022-09-13T07:09:26.671Z,62.60
2022-09-13T07:14:57.728Z,62.24
2022-09-13T07:20:29.081Z,61.98
2022-09-13T07:26:05.731Z,61.94
2022-09-13T07:31:39.023Z,62.09
2022-09-13T07:37:10.216Z,62.04
2022-09-13T07:42:41.994Z,62.35
2022-09-13T07:48:13.314Z,61.84
2022-09-13T07:53:46.001Z,61.67
2022-09-13T07:59:18.060Z,61.51
2022-09-13T08:04:49.199Z,61.63
2022-09-13T08:10:20.354Z,61.59
2022-09-13T08:15:51.709Z,61.51
2022-09-13T08:21:25.415Z,61.58
2022-09-13T08:26:56.873Z,61.62
2022-09-13T08:32:28.059Z,61.49
2022-09-13T08:38:00.004Z,61.69
2022-09-13T08:43:41.995Z,61.47
2022-09-13T08:49:28.139Z,61.54
2022-09-13T08:55:03.142Z,61.98
2022-09-13T09:00:44.815Z,61.77
2022-09-13T09:06:17.288Z,61.74
2022-09-13T09:11:55.403Z,61.42
2022-09-13T09:17:50.155Z,61.25
2022-09-13T09:23:22.142Z,61.48
2022-09-13T09:28:58.596Z,61.46
2022-09-13T09:34:46.423Z,61.24
2022-09-13T09:40:18.355Z,61.53
2022-09-13T09:45:52.218Z,61.32
2022-09-13T09:51:26.076Z,61.55
2022-09-13T09:56:57.370Z,61.51
2022-09-13T10:02:28.493Z,61.00
2022-09-13T10:08:05.781Z,61.32
2022-09-13T10:13:38.466Z,61.50
2022-09-13T10:19:29.805Z,61.25
2022-09-13T10:25:22.427Z,61.20
2022-09-13T10:30:58.143Z,61.67
2022-09-13T10:36:51.504Z,61.28
2022-09-13T10:42:24.749Z,61.74
2022-09-13T10:48:19.252Z,61.28
2022-09-13T10:53:50.608Z,61.39
2022-09-13T10:59:26.213Z,61.43
2022-09-13T11:05:21.971Z,61.65
2022-09-13T11:11:05.533Z,61.73
2022-09-13T11:17:01.737Z,61.67
2022-09-13T11:23:00.695Z,61.72
2022-09-13T11:28:40.760Z,61.85
2022-09-13T11:34:37.674Z,61.49
2022-09-13T11:40:32.848Z,61.39
2022-09-13T11:46:41.726Z,61.48
2022-09-13T11:52:32.635Z,61.51
2022-09-13T11:58:06.769Z,61.49
2022-09-13T12:03:57.957Z,61.19
2022-09-13T12:09:33.641Z,61.60
2022-09-13T12:15:08.617Z,61.43
2022-09-13T12:20:48.858Z,61.52
2022-09-13T12:26:45.511Z,61.43
2022-09-13T12:32:18.468Z,61.54
2022-09-13T12:37:58.324Z,61.25
2022-09-13T12:43:44.547Z,61.43
2022-09-13T12:49:26.796Z,61.54
2022-09-13T12:55:46.968Z,61.69
2022-09-13T13:01:24.627Z,61.66
2022-09-13T13:07:02.652Z,61.38
2022-09-13T13:12:38.603Z,61.58
2022-09-13T13:18:22.802Z,61.44
2022-09-13T13:24:28.815Z,61.41
2022-09-13T13:30:36.861Z,61.50
2022-09-13T13:36:22.518Z,61.60
2022-09-13T13:41:57.467Z,61.43
2022-09-13T13:47:28.791Z,61.57
2022-09-13T13:53:18.609Z,61.34
2022-09-13T13:58:56.673Z,61.46
2022-09-13T14:04:42.928Z,61.68
2022-09-13T14:10:33.244Z,61.53
2022-09-13T14:16:44.656Z,61.53
2022-09-13T14:22:26.358Z,61.79
2022-09-13T14:27:59.467Z,61.78
2022-09-13T14:33:35.244Z,61.52
2022-09-13T14:39:09.249Z,61.82
2022-09-13T14:44:47.318Z,61.93
2022-09-13T14:50:21.587Z,61.87
2022-09-13T14:56:02.232Z,61.75
2022-09-13T15:01:35.157Z,61.93
2022-09-13T15:07:16.936Z,61.93
2022-09-13T15:13:05.980Z,61.95
2022-09-13T15:18:37.372Z,62.05
2022-09-13T15:24:32.749Z,62.05
2022-09-13T15:30:06.413Z,61.83
2022-09-13T15:35:43.015Z,62.20
2022-09-13T15:41:19.413Z,62.03
2022-09-13T15:46:55.991Z,62.28
2022-09-13T15:52:27.488Z,61.90
2022-09-13T15:57:58.563Z,61.82
2022-09-13T16:03:30.226Z,61.86
2022-09-13T16:09:01.725Z,61.84
2022-09-13T16:14:33.496Z,61.44
2022-09-13T16:20:08.262Z,61.73
2022-09-13T16:25:39.940Z,61.29
2022-09-13T16:31:11.013Z,61.50
2022-09-13T16:36:42.998Z,61.09
2022-09-13T16:42:15.742Z,61.08
2022-09-13T16:47:46.804Z,60.82
2022-09-13T16:53:18.078Z,61.03
2022-09-13T16:58:50.139Z,60.85
2022-09-13T17:04:21.120Z,60.89
2022-09-13T17:09:52.725Z,60.82
2022-09-13T17:15:23.730Z,61.15
2022-09-13T17:20:54.869Z,60.97
2022-09-13T17:26:26.384Z,61.35
2022-09-13T17:31:58.935Z,60.90
2022-09-13T17:37:30.528Z,61.00
2022-09-13T17:43:01.781Z,61.43
2022-09-13T17:48:33.295Z,61.39
2022-09-13T17:54:06.649Z,61.30
2022-09-13T17:59:38.385Z,61.17
2022-09-13T18:05:13.385Z,61.12
2022-09-13T18:11:10.154Z,61.30
2022-09-13T18:16:37.220Z,61.35
2022-09-13T18:22:09.732Z,61.41
2022-09-13T18:27:41.052Z,61.47
2022-09-13T18:33:13.469Z,61.43
2022-09-13T18:38:47.149Z,61.28
2022-09-13T18:44:18.879Z,61.30
2022-09-13T18:49:49.788Z,61.67
2022-09-13T18:55:20.671Z,61.46
2022-09-13T19:01:04.202Z,61.49
2022-09-13T19:06:38.460Z,61.62
2022-09-13T19:12:09.597Z,61.24
2022-09-13T19:17:41.066Z,61.47
2022-09-13T19:23:12.331Z,61.63
2022-09-13T19:29:08.523Z,61.68
2022-09-13T19:34:39.747Z,61.58
2022-09-13T19:40:11.447Z,61.37
2022-09-13T19:45:42.379Z,61.19
2022-09-13T19:51:17.998Z,61.33
2022-09-13T19:56:50.201Z,61.26
2022-09-13T20:02:20.992Z,61.62
2022-09-13T20:07:51.811Z,61.35
2022-09-13T20:13:24.277Z,61.41
2022-09-13T20:18:57.367Z,61.51
2022-09-13T20:24:28.440Z,61.48
2022-09-13T20:30:00.597Z,61.84
2022-09-13T20:35:32.975Z,62.00
2022-09-13T20:41:09.470Z,61.88
2022-09-13T20:46:40.673Z,61.78
2022-09-13T20:52:14.016Z,61.89
2022-09-13T20:57:48.366Z,62.30
2022-09-13T21:03:19.435Z,62.08
2022-09-13T21:08:51.200Z,61.66
2022-09-13T21:14:22.421Z,61.46
2022-09-13T21:19:53.377Z,61.26
2022-09-13T21:25:25.697Z,61.74
2022-09-13T21:30:58.694Z,61.67
2022-09-13T21:36:30.907Z,61.71
2022-09-13T21:42:03.141Z,61.79
2022-09-13T21:47:34.043Z,61.74
2022-09-13T21:53:04.962Z,61.30
2022-09-13T21:58:37.016Z,61.63
2022-09-13T22:04:16.683Z,61.52
2022-09-13T22:09:48.314Z,61.83
2022-09-13T22:15:19.239Z,61.78
2022-09-13T22:20:50.417Z,61.71
2022-09-13T22:26:24.467Z,61.62
2022-09-13T22:31:56.200Z,62.07
2022-09-13T22:37:27.419Z,61.65
2022-09-13T22:42:58.258Z,61.70
2022-09-13T22:48:29.785Z,61.81
2022-09-13T22:54:06.339Z,61.92
2022-09-13T22:59:38.431Z,61.84
2022-09-13T23:05:09.588Z,62.08
2022-09-13T23:10:40.641Z,61.77
2022-09-13T23:16:17.399Z,61.74
2022-09-13T23:21:49.057Z,61.80
2022-09-13T23:27:20.024Z,61.87
2022-09-13T23:32:51.451Z,61.59
2022-09-13T23:38:22.543Z,61.91
2022-09-13T23:43:54.480Z,62.24
2022-09-13T23:49:25.632Z,62.50
2022-09-13T23:54:57.270Z,62.29
